createdAt,value
2022-12-19T00:02:47.580Z,-1.18
2022-12-19T00:06:51.179Z,-1.16
2022-12-19T00:10:58.873Z,-1.06
2022-12-19T00:15:00.976Z,-1.07
2022-12-19T00:19:04.157Z,-1.19
2022-12-19T00:23:06.229Z,-1.22
2022-12-19T00:27:08.251Z,-1.38
2022-12-19T00:31:12.273Z,-1.41
2022-12-19T00:35:14.904Z,-1.37
2022-12-19T00:39:17.464Z,-1.42
2022-12-19T00:43:21.246Z,-1.51
2022-12-19T00:47:23.341Z,-1.45
2022-12-19T00:51:28.289Z,-1.35
2022-12-19T00:55:30.676Z,-1.36
2022-12-19T00:59:32.745Z,-1.35
2022-12-19T01:03:35.140Z,-1.37
2022-12-19T01:07:37.415Z,-1.36
2022-12-19T01:11:58.261Z,-1.35
2022-12-19T01:16:05.621Z,-1.22
2022-12-19T01:20:08.436Z,-1.15
2022-12-19T01:24:11.861Z,-1.11
2022-12-19T01:28:15.436Z,-1.11
2022-12-19T01:32:17.824Z,-1.12
2022-12-19T01:36:19.917Z,-1.12
2022-12-19T01:40:23.006Z,-1.08
2022-12-19T01:44:26.180Z,-1.03
2022-12-19T01:48:33.467Z,-1.02
2022-12-19T01:52:35.540Z,-1.01
2022-12-19T01:56:44.946Z,-1.04
2022-12-19T02:00:47.382Z,-1.07
2022-12-19T02:04:49.516Z,-1.02
2022-12-19T02:08:51.961Z,-0.96
2022-12-19T02:12:54.891Z,-0.95
2022-12-19T02:17:12.410Z,-0.96
2022-12-19T02:21:35.182Z,-0.96
2022-12-19T02:26:02.141Z,-0.93
2022-12-19T02:30:07.041Z,-0.91
2022-12-19T02:34:44.438Z,-0.91
2022-12-19T02:38:52.951Z,-0.88
2022-12-19T02:42:59.217Z,-0.83
2022-12-19T02:47:05.012Z,-0.73
2022-12-19T02:51:09.196Z,-0.75
2022-12-19T02:55:20.144Z,-0.78
2022-12-19T02:59:41.011Z,-0.78
2022-12-19T03:04:12.841Z,-0.84
2022-12-19T03:09:08.292Z,-0.82
2022-12-19T03:13:30.176Z,-0.88
2022-12-19T03:17:39.011Z,-0.97
2022-12-19T03:21:45.205Z,-1.06
2022-12-19T03:25:56.254Z,-1.14
2022-12-19T03:30:05.096Z,-1.14
2022-12-19T03:34:18.987Z,-1.09
2022-12-19T03:38:22.651Z,-1.01
2022-12-19T03:42:47.361Z,-0.99
2022-12-19T03:46:58.586Z,-0.95
2022-12-19T03:51:31.634Z,-0.85
2022-12-19T03:55:44.634Z,-0.87
2022-12-19T03:59:51.193Z,-0.87
2022-12-19T04:03:54.369Z,-0.88
2022-12-19T04:08:02.531Z,-0.82
2022-12-19T04:12:10.070Z,-0.75
2022-12-19T04:16:58.651Z,-0.75
2022-12-19T04:21:22.251Z,-0.69
2022-12-19T04:25:29.912Z,-0.63
2022-12-19T04:29:35.360Z,-0.48
2022-12-19T04:33:37.383Z,-0.46
2022-12-19T04:37:39.984Z,-0.41
2022-12-19T04:41:42.198Z,-0.43
2022-12-19T04:45:44.464Z,-0.45
2022-12-19T04:49:46.669Z,-0.44
2022-12-19T04:53:48.671Z,-0.41
2022-12-19T04:57:50.733Z,-0.40
2022-12-19T05:01:52.869Z,-0.43
2022-12-19T05:06:03.932Z,-0.40
2022-12-19T05:10:06.910Z,-0.33
2022-12-19T05:14:09.623Z,-0.25
2022-12-19T05:18:11.645Z,-0.16
2022-12-19T05:22:13.681Z,-0.08
2022-12-19T05:26:16.109Z,-0.01
2022-12-19T05:30:18.278Z,0.09
2022-12-19T05:34:20.370Z,0.19
2022-12-19T05:38:22.377Z,0.27
2022-12-19T05:42:26.300Z,0.34
2022-12-19T05:46:28.403Z,0.37
2022-12-19T05:50:30.461Z,0.39
2022-12-19T05:54:44.058Z,0.38
2022-12-19T05:58:46.712Z,0.36
2022-12-19T06:02:49.048Z,0.39
2022-12-19T06:06:51.164Z,0.39
2022-12-19T06:10:53.467Z,0.41
2022-12-19T06:14:55.469Z,0.44
2022-12-19T06:18:57.542Z,0.48
2022-12-19T06:22:59.555Z,0.49
2022-12-19T06:27:01.594Z,0.49
2022-12-19T06:31:05.979Z,0.49
2022-12-19T06:35:09.872Z,0.53
2022-12-19T06:39:14.140Z,0.58
2022-12-19T06:43:16.477Z,0.62
2022-12-19T06:47:19.660Z,0.67
2022-12-19T06:51:22.216Z,0.71
2022-12-19T06:55:24.223Z,0.84
2022-12-19T06:59:26.321Z,0.90
2022-12-19T07:03:41.110Z,0.92
2022-12-19T07:07:43.122Z,0.87
2022-12-19T07:11:45.240Z,0.93
2022-12-19T07:15:48.128Z,0.93
2022-12-19T07:19:50.534Z,0.76
2022-12-19T07:23:52.698Z,0.69
2022-12-19T07:27:54.868Z,0.70
2022-12-19T07:31:56.941Z,0.84
2022-12-19T07:35:59.001Z,1.00
2022-12-19T07:40:01.507Z,2.45
2022-12-19T07:44:03.951Z,2.82
2022-12-19T07:48:07.311Z,2.37
2022-12-19T07:52:09.796Z,2.14
2022-12-19T07:56:11.855Z,1.97
2022-12-19T08:00:14.436Z,1.85
2022-12-19T08:04:16.906Z,1.71
2022-12-19T08:08:19.051Z,1.58
2022-12-19T08:12:21.107Z,1.38
2022-12-19T08:16:25.261Z,1.13
2022-12-19T08:20:28.492Z,1.14
2022-12-19T08:24:30.935Z,1.21
2022-12-19T08:28:34.359Z,1.37
2022-12-19T08:32:36.438Z,1.56
2022-12-19T08:36:39.440Z,1.65
2022-12-19T08:40:47.095Z,1.69
2022-12-19T08:44:49.516Z,1.75
2022-12-19T08:48:51.585Z,1.82
2022-12-19T08:52:53.603Z,1.85
2022-12-19T08:56:55.727Z,1.91
2022-12-19T09:01:05.643Z,2.04
2022-12-19T09:06:00.383Z,2.14
2022-12-19T09:09:30.363Z,2.22
2022-12-19T09:13:33.100Z,2.28
2022-12-19T09:17:35.110Z,2.33
2022-12-19T09:21:37.177Z,2.38
2022-12-19T09:25:39.197Z,2.43
2022-12-19T09:29:41.485Z,2.46
2022-12-19T09:33:44.227Z,2.52
2022-12-19T09:37:46.292Z,2.44
2022-12-19T09:42:40.799Z,2.40
2022-12-19T09:46:51.286Z,2.39
2022-12-19T09:51:11.179Z,2.39
2022-12-19T09:55:22.451Z,2.44
2022-12-19T09:59:39.833Z,2.43
2022-12-19T10:03:51.591Z,2.47
2022-12-19T10:08:10.325Z,2.55
2022-12-19T10:12:42.575Z,2.63
2022-12-19T10:17:23.781Z,2.73
2022-12-19T10:22:17.798Z,2.77
2022-12-19T10:26:23.360Z,2.81
2022-12-19T10:30:36.549Z,2.86
2022-12-19T10:34:44.341Z,2.92
2022-12-19T10:39:21.797Z,2.89
2022-12-19T10:43:37.892Z,2.91
2022-12-19T10:47:43.025Z,2.92
2022-12-19T10:52:07.892Z,2.92
2022-12-19T10:56:22.102Z,2.93
2022-12-19T11:00:25.263Z,2.88
2022-12-19T11:04:34.440Z,2.92
2022-12-19T11:08:37.058Z,2.94
2022-12-19T11:17:31.263Z,2.98
2022-12-19T11:21:37.474Z,3.01
2022-12-19T11:29:27.450Z,3.00
2022-12-19T11:30:44.127Z,2.98
2022-12-19T11:35:37.178Z,3.12
2022-12-19T11:40:46.697Z,3.11
2022-12-19T11:45:00.509Z,3.08
2022-12-19T11:49:11.021Z,3.08
2022-12-19T11:53:20.193Z,3.11
2022-12-19T11:57:22.714Z,3.13
2022-12-19T12:01:30.682Z,3.26
2022-12-19T12:05:43.766Z,3.38
2022-12-19T12:11:25.658Z,3.44
2022-12-19T12:22:53.782Z,3.46
2022-12-19T12:31:18.863Z,3.48
2022-12-19T12:31:48.721Z,3.55
2022-12-19T12:32:05.403Z,3.51
2022-12-19T12:35:33.434Z,3.63
2022-12-19T12:38:21.982Z,3.65
2022-12-19T12:42:51.441Z,3.66
2022-12-19T12:47:02.751Z,3.67
2022-12-19T12:51:07.455Z,3.68
2022-12-19T12:55:26.671Z,3.67
2022-12-19T12:59:31.947Z,3.67
2022-12-19T13:03:35.197Z,3.66
2022-12-19T13:07:43.989Z,3.70
2022-12-19T13:12:42.133Z,3.76
2022-12-19T13:16:44.832Z,3.81
2022-12-19T13:20:48.223Z,3.85
2022-12-19T13:24:58.199Z,3.94
2022-12-19T13:29:26.520Z,4.01
2022-12-19T13:34:07.737Z,4.09
2022-12-19T13:39:59.202Z,4.12
2022-12-19T13:43:20.236Z,4.12
2022-12-19T13:47:24.039Z,4.16
2022-12-19T13:51:26.243Z,4.22
2022-12-19T13:55:29.764Z,4.23
2022-12-19T13:59:36.870Z,4.24
2022-12-19T14:03:40.615Z,4.25
2022-12-19T14:07:42.617Z,4.25
2022-12-19T14:13:46.540Z,4.25
2022-12-19T14:16:14.491Z,4.23
2022-12-19T14:22:01.819Z,4.19
2022-12-19T14:27:08.277Z,4.21
2022-12-19T14:30:26.671Z,4.21
2022-12-19T14:34:18.533Z,4.20
2022-12-19T14:39:20.379Z,4.17
2022-12-19T14:43:59.308Z,4.15
2022-12-19T14:54:02.816Z,4.15
2022-12-19T14:54:20.953Z,4.11
2022-12-19T14:56:53.861Z,4.08
2022-12-19T15:01:07.747Z,4.06
2022-12-19T15:05:19.451Z,4.02
2022-12-19T15:10:58.484Z,3.99
2022-12-19T15:14:57.677Z,3.96
2022-12-19T15:18:23.043Z,3.92
2022-12-19T15:22:25.169Z,3.89
2022-12-19T15:26:30.680Z,3.87
2022-12-19T15:30:36.818Z,3.85
2022-12-19T15:34:50.602Z,3.82
2022-12-19T15:38:53.630Z,3.82
2022-12-19T15:42:57.798Z,3.82
2022-12-19T15:47:01.636Z,3.93
2022-12-19T15:51:03.904Z,3.97
2022-12-19T15:55:07.593Z,4.01
2022-12-19T15:59:36.430Z,4.03
2022-12-19T16:03:40.095Z,4.05
2022-12-19T16:07:42.963Z,4.09
2022-12-19T16:11:45.128Z,4.13
2022-12-19T16:15:47.807Z,4.18
2022-12-19T16:19:50.712Z,4.20
2022-12-19T16:23:52.738Z,4.25
2022-12-19T16:27:58.417Z,4.29
2022-12-19T16:32:01.752Z,4.45
2022-12-19T16:36:06.295Z,4.45
2022-12-19T16:40:14.766Z,4.46
2022-12-19T16:44:21.924Z,4.46
2022-12-19T16:48:26.101Z,4.53
2022-12-19T16:52:28.015Z,4.52
2022-12-19T16:56:34.614Z,4.51
2022-12-19T17:00:37.579Z,4.52
2022-12-19T17:04:42.722Z,4.53
2022-12-19T17:08:45.338Z,4.56
2022-12-19T17:12:49.150Z,4.57
2022-12-19T17:16:55.178Z,4.63
2022-12-19T17:20:57.761Z,4.70
2022-12-19T17:24:59.857Z,4.76
2022-12-19T17:29:01.943Z,4.80
2022-12-19T17:33:04.518Z,4.86
2022-12-19T17:37:06.623Z,4.91
2022-12-19T17:41:16.584Z,4.90
2022-12-19T17:45:19.131Z,4.92
2022-12-19T17:49:27.353Z,4.91
2022-12-19T17:53:29.528Z,4.88
2022-12-19T17:57:31.557Z,4.85
2022-12-19T18:01:35.459Z,4.83
2022-12-19T18:05:37.593Z,4.77
2022-12-19T18:09:39.629Z,4.72
2022-12-19T18:13:41.756Z,4.69
2022-12-19T18:17:44.638Z,4.68
2022-12-19T18:21:46.743Z,4.60
2022-12-19T18:25:49.620Z,4.61
2022-12-19T18:29:51.685Z,4.64
2022-12-19T18:33:55.122Z,4.68
2022-12-19T18:38:00.106Z,4.68
2022-12-19T18:42:02.182Z,4.68
2022-12-19T18:46:04.384Z,4.67
2022-12-19T18:50:18.611Z,4.63
2022-12-19T18:54:22.356Z,4.58
2022-12-19T18:58:24.511Z,4.54
2022-12-19T19:02:28.223Z,4.53
2022-12-19T19:06:35.725Z,4.55
2022-12-19T19:10:39.886Z,4.61
2022-12-19T19:14:45.512Z,4.64
2022-12-19T19:18:52.904Z,4.69
2022-12-19T19:22:55.160Z,4.73
2022-12-19T19:26:57.271Z,4.78
2022-12-19T19:31:00.765Z,4.83
2022-12-19T19:35:05.416Z,4.91
2022-12-19T19:39:07.466Z,4.96
2022-12-19T19:43:09.757Z,5.00
2022-12-19T19:47:12.775Z,5.03
2022-12-19T19:51:16.144Z,5.04
2022-12-19T19:55:19.646Z,5.08
2022-12-19T19:59:22.009Z,5.19
2022-12-19T20:03:24.459Z,5.29
2022-12-19T20:07:27.175Z,5.40
2022-12-19T20:11:29.389Z,5.50
2022-12-19T20:15:31.970Z,5.57
2022-12-19T20:19:34.117Z,5.61
2022-12-19T20:23:36.843Z,5.68
2022-12-19T20:27:39.023Z,5.81
2022-12-19T20:31:42.526Z,5.94
2022-12-19T20:35:44.771Z,5.99
2022-12-19T20:39:46.813Z,5.99
2022-12-19T20:43:49.377Z,5.99
2022-12-19T20:47:51.523Z,6.02
2022-12-19T20:51:53.917Z,6.04
2022-12-19T20:56:00.012Z,6.03
2022-12-19T21:00:04.711Z,5.99
2022-12-19T21:04:06.969Z,5.93
2022-12-19T21:08:09.092Z,5.94
2022-12-19T21:12:11.849Z,5.99
2022-12-19T21:16:18.070Z,6.08
2022-12-19T21:20:20.160Z,6.18
2022-12-19T21:24:22.231Z,6.28
2022-12-19T21:28:25.224Z,6.42
2022-12-19T21:32:27.400Z,6.43
2022-12-19T21:36:30.477Z,6.36
2022-12-19T21:40:32.519Z,6.29
2022-12-19T21:44:34.542Z,6.23
2022-12-19T21:48:48.097Z,6.24
2022-12-19T21:52:55.760Z,6.27
2022-12-19T21:56:58.062Z,6.31
2022-12-19T22:01:18.306Z,6.36
2022-12-19T22:05:20.514Z,6.40
2022-12-19T22:09:23.107Z,6.49
2022-12-19T22:13:26.033Z,6.60
2022-12-19T22:17:28.113Z,6.77
2022-12-19T22:21:31.011Z,6.91
2022-12-19T22:25:33.069Z,6.99
2022-12-19T22:29:36.675Z,6.94
2022-12-19T22:33:38.866Z,6.87
2022-12-19T22:37:41.071Z,6.79
2022-12-19T22:41:44.164Z,6.67
2022-12-19T22:45:46.210Z,6.56
2022-12-19T22:49:51.303Z,6.52
2022-12-19T22:53:54.123Z,6.54
2022-12-19T22:57:56.156Z,6.61
2022-12-19T23:01:58.359Z,6.70
2022-12-19T23:06:01.229Z,6.81
2022-12-19T23:10:03.718Z,6.90
2022-12-19T23:14:07.618Z,6.99
2022-12-19T23:18:09.753Z,7.04
2022-12-19T23:22:11.831Z,7.15
2022-12-19T23:26:19.805Z,7.13
2022-12-19T23:30:21.897Z,7.10
2022-12-19T23:34:23.949Z,7.11
2022-12-19T23:38:26.619Z,7.09
2022-12-19T23:42:28.899Z,7.06
2022-12-19T23:46:31.082Z,7.06
2022-12-19T23:50:33.271Z,7.03
2022-12-19T23:54:35.392Z,7.01
2022-12-19T23:58:37.467Z,6.94
